KONT/ONT METAR and TAF weather

Enter ICAO airport designator
Station Type Date Time Source
KONT METAR 2022/01/29 13:53 UTC NOAA

KONT 291353Z 00000KT 10SM BKN220 07/M08 A3015 RMK AO2 SLP208 T00721078


Station Type Date Time Source
KONT Decoded METAR 2022/01/29 13:53 UTC NOAA

ONTARIO INTERNATIONAL AIRPORT, CA, United States (KONT) 34-03N 117-35W 275M
Jan 29, 2022 - 08:53 AM EST / 2022.01.29 1353 UTC
Wind: Calm:0
Visibility: 10 mile(s):0
Sky conditions: mostly cloudy
Temperature: 45.0 F (7.2 C)
Dew Point: 18.0 F (-7.8 C)
Relative Humidity: 33%
Pressure (altimeter): 30.15 in. Hg (1020 hPa)
ob: KONT 291353Z 00000KT 10SM BKN220 07/M08 A3015 RMK AO2 SLP208 T00721078
cycle: 14

Station Type Date Time Source
KONT TAF 2022/01/29 12:28 UTC NOAA

TAF KONT 291126Z 2912/3018 VRB05KT P6SM BKN250
FM292000 27006KT P6SM BKN150
FM300200 VRB04KT P6SM BKN150

Example: see airport list